createdAt,value
2018-12-25T00:02:23.029Z,98437.66
2018-12-25T00:04:49.537Z,98426.75
2018-12-25T00:07:16.859Z,98431.87
2018-12-25T00:09:43.607Z,98432.69
2018-12-25T00:12:10.128Z,98447.81
2018-12-25T00:14:36.751Z,98450.09
2018-12-25T00:17:07.910Z,98447.87
2018-12-25T00:19:37.926Z,98451.98
2018-12-25T00:22:07.947Z,98467.00
2018-12-25T00:24:34.989Z,98463.23
2018-12-25T00:27:01.501Z,98469.09
2018-12-25T00:29:28.155Z,98465.47
2018-12-25T00:31:59.454Z,98473.17
2018-12-25T00:34:29.457Z,98478.95
2018-12-25T00:36:58.289Z,98471.73
2018-12-25T00:39:24.926Z,98469.47
2018-12-25T00:41:53.958Z,98483.30
2018-12-25T00:44:20.502Z,98477.99
2018-12-25T00:46:49.209Z,98472.92
2018-12-25T00:49:16.419Z,98465.81
2018-12-25T00:51:42.972Z,98485.69
2018-12-25T00:54:09.547Z,98482.39
2018-12-25T00:56:38.280Z,98486.41
2018-12-25T00:59:07.751Z,98485.44
2018-12-25T01:01:34.377Z,98484.75
2018-12-25T01:04:00.924Z,98483.20
2018-12-25T01:06:29.728Z,98486.87
2018-12-25T01:08:56.313Z,98489.80
2018-12-25T01:11:25.199Z,98492.55
2018-12-25T01:13:54.562Z,98495.26
2018-12-25T01:16:21.213Z,98494.91
2018-12-25T01:18:49.948Z,98491.37
2018-12-25T01:21:16.596Z,98490.48
2018-12-25T01:23:43.158Z,98489.12
2018-12-25T01:26:10.374Z,98485.84
2018-12-25T01:28:36.988Z,98490.58
2018-12-25T01:31:03.662Z,98491.64
2018-12-25T01:33:33.898Z,98488.39
2018-12-25T01:36:03.454Z,98489.38
2018-12-25T01:41:18.579Z,98490.63
2018-12-25T01:43:47.046Z,98493.84
2018-12-25T01:46:17.358Z,98500.93
2018-12-25T01:48:43.851Z,98499.47
2018-12-25T01:53:56.663Z,98499.01
2018-12-25T01:56:27.325Z,98512.88
2018-12-25T01:58:55.570Z,98508.00
2018-12-25T02:01:23.277Z,98503.66
2018-12-25T02:03:53.757Z,98505.79
2018-12-25T02:06:24.444Z,98503.11
2018-12-25T02:08:54.063Z,98500.41
2018-12-25T02:11:21.031Z,98509.48
2018-12-25T02:13:48.320Z,98499.17
2018-12-25T02:16:15.639Z,98502.98
2018-12-25T02:18:48.652Z,98503.93
2018-12-25T02:24:05.324Z,98507.14
2018-12-25T02:26:34.623Z,98510.42
2018-12-25T02:29:03.506Z,98504.43
2018-12-25T02:34:17.105Z,98490.09
2018-12-25T02:36:48.269Z,98496.69
2018-12-25T02:39:17.665Z,98488.51
2018-12-25T02:41:51.726Z,98502.53
2018-12-25T02:44:18.898Z,98480.94
2018-12-25T02:46:52.678Z,98481.65
2018-12-25T02:49:21.879Z,98476.70
2018-12-25T02:54:36.490Z,98466.67
2018-12-25T02:57:05.375Z,98463.19
2018-12-25T02:59:37.050Z,98460.12
2018-12-25T03:04:50.437Z,98461.39
2018-12-25T03:07:24.245Z,98463.91
2018-12-25T03:09:56.714Z,98465.53
2018-12-25T03:12:25.042Z,98466.58
2018-12-25T03:14:52.600Z,98483.20
2018-12-25T03:17:19.439Z,98467.47
2018-12-25T03:19:48.125Z,98477.20
2018-12-25T03:25:02.660Z,98469.59
2018-12-25T03:27:32.499Z,98469.23
2018-12-25T03:30:00.561Z,98472.25
2018-12-25T03:32:27.926Z,98470.06
2018-12-25T03:34:55.818Z,98459.03
2018-12-25T03:37:22.355Z,98464.40
2018-12-25T03:39:51.092Z,98468.89
2018-12-25T03:42:20.430Z,98473.81
2018-12-25T03:44:48.979Z,98473.16
2018-12-25T03:47:17.810Z,98483.38
2018-12-25T03:49:49.343Z,98482.63
2018-12-25T03:52:16.145Z,98487.54
2018-12-25T03:54:45.874Z,98495.86
2018-12-25T03:57:13.273Z,98508.66
2018-12-25T03:59:43.580Z,98504.45
2018-12-25T04:04:57.291Z,98505.70
2018-12-25T04:07:29.581Z,98510.73
2018-12-25T04:09:59.170Z,98510.74
2018-12-25T04:12:26.066Z,98520.58
2018-12-25T04:14:54.346Z,98506.94
2018-12-25T04:17:23.475Z,98491.84
2018-12-25T04:19:51.208Z,98507.68
2018-12-25T04:22:20.047Z,98504.01
2018-12-25T04:24:46.752Z,98502.95
2018-12-25T04:27:14.374Z,98496.68
2018-12-25T04:29:43.228Z,98510.98
2018-12-25T04:32:19.928Z,98504.34
2018-12-25T04:34:48.607Z,98507.56
2018-12-25T04:37:15.303Z,98493.75
2018-12-25T04:39:41.868Z,98507.73
2018-12-25T04:42:08.653Z,98514.12
2018-12-25T04:44:35.658Z,98513.60
2018-12-25T04:47:05.396Z,98508.72
2018-12-25T04:49:31.993Z,98515.63
2018-12-25T04:51:58.528Z,98520.16
2018-12-25T04:54:25.127Z,98515.05
2018-12-25T04:56:52.813Z,98516.72
2018-12-25T04:59:19.351Z,98521.59
2018-12-25T05:01:46.962Z,98527.05
2018-12-25T05:04:13.780Z,98519.78
2018-12-25T05:06:40.264Z,98526.86
2018-12-25T05:09:06.782Z,98529.60
2018-12-25T05:11:34.479Z,98532.23
2018-12-25T05:14:00.990Z,98536.77
2018-12-25T05:16:27.654Z,98529.62
2018-12-25T05:18:54.589Z,98531.08
2018-12-25T05:21:23.477Z,98551.15
2018-12-25T05:23:50.127Z,98548.00
2018-12-25T05:26:16.630Z,98538.25
2018-12-25T05:28:43.155Z,98540.76
2018-12-25T05:31:09.726Z,98530.73
2018-12-25T05:33:38.719Z,98539.58
2018-12-25T05:36:05.074Z,98539.73
2018-12-25T05:38:31.653Z,98545.30
2018-12-25T05:40:58.273Z,98552.87
2018-12-25T05:43:37.403Z,98547.47
2018-12-25T05:46:06.652Z,98557.84
2018-12-25T05:48:33.526Z,98562.73
2018-12-25T05:51:00.069Z,98551.02
2018-12-25T05:53:29.114Z,98552.30
2018-12-25T05:55:56.357Z,98561.15
2018-12-25T05:58:22.871Z,98569.79
2018-12-25T06:00:51.514Z,98562.44
2018-12-25T06:03:18.276Z,98544.66
2018-12-25T06:05:47.610Z,98553.69
2018-12-25T06:08:16.385Z,98563.34
2018-12-25T06:10:45.288Z,98561.09
2018-12-25T06:13:22.137Z,98554.47
2018-12-25T06:15:48.676Z,98571.00
2018-12-25T06:18:19.462Z,98563.84
2018-12-25T06:20:55.065Z,98566.03
2018-12-25T06:23:23.639Z,98572.03
2018-12-25T06:25:51.992Z,98572.61
2018-12-25T06:28:18.517Z,98570.64
2018-12-25T06:30:47.149Z,98583.19
2018-12-25T06:33:18.026Z,98587.45
2018-12-25T06:35:44.520Z,98581.95
2018-12-25T06:38:11.064Z,98586.53
2018-12-25T06:40:39.796Z,98583.38
2018-12-25T06:43:07.044Z,98589.47
2018-12-25T06:45:33.639Z,98585.67
2018-12-25T06:48:01.997Z,98592.12
2018-12-25T06:50:28.500Z,98599.93
2018-12-25T06:52:57.378Z,98595.59
2018-12-25T06:55:26.327Z,98599.17
2018-12-25T06:57:55.164Z,98591.95
2018-12-25T07:00:22.503Z,98598.22
2018-12-25T07:02:49.169Z,98609.44
2018-12-25T07:05:17.153Z,98600.08
2018-12-25T07:07:45.740Z,98598.54
2018-12-25T07:10:12.302Z,98593.93
2018-12-25T07:12:41.022Z,98591.50
2018-12-25T07:15:07.564Z,98596.51
2018-12-25T07:17:34.118Z,98588.94
2018-12-25T07:20:00.929Z,98595.88
2018-12-25T07:22:29.764Z,98596.78
2018-12-25T07:24:58.699Z,98594.03
2018-12-25T07:27:25.292Z,98595.81
2018-12-25T07:29:54.119Z,98589.63
2018-12-25T07:32:22.885Z,98591.49
2018-12-25T07:34:49.472Z,98598.59
2018-12-25T07:37:16.066Z,98603.73
2018-12-25T07:39:42.612Z,98602.83
2018-12-25T07:42:09.188Z,98602.54
2018-12-25T07:44:35.574Z,98601.28
2018-12-25T07:47:02.084Z,98608.16
2018-12-25T07:49:28.607Z,98607.73
2018-12-25T07:51:55.149Z,98602.56
2018-12-25T07:54:23.426Z,98601.56
2018-12-25T07:56:53.443Z,98594.55
2018-12-25T07:59:19.973Z,98597.97
2018-12-25T08:01:46.500Z,98597.55
2018-12-25T08:04:13.122Z,98608.15
2018-12-25T08:06:39.781Z,98606.53
2018-12-25T08:09:08.798Z,98612.70
2018-12-25T08:11:37.108Z,98607.01
2018-12-25T08:14:03.665Z,98611.77
2018-12-25T08:16:30.258Z,98613.28
2018-12-25T08:18:56.860Z,98608.79
2018-12-25T08:21:29.211Z,98620.62
2018-12-25T08:23:54.139Z,98606.84
2018-12-25T08:26:20.926Z,98622.75
2018-12-25T08:28:48.368Z,98629.87
2018-12-25T08:31:21.994Z,98621.58
2018-12-25T08:33:48.613Z,98616.47
2018-12-25T08:36:15.118Z,98613.02
2018-12-25T08:38:41.822Z,98614.30
2018-12-25T08:41:10.638Z,98617.73
2018-12-25T08:43:37.319Z,98611.53
2018-12-25T08:46:03.908Z,98615.59
2018-12-25T08:48:30.423Z,98621.20
2018-12-25T08:50:56.965Z,98617.41
2018-12-25T08:53:23.545Z,98614.55
2018-12-25T08:55:50.463Z,98617.76
2018-12-25T08:58:16.997Z,98611.73
2018-12-25T09:00:46.292Z,98613.84
2018-12-25T09:03:12.833Z,98609.98
2018-12-25T09:05:39.320Z,98615.70
2018-12-25T09:08:11.266Z,98617.97
2018-12-25T09:10:40.021Z,98614.73
2018-12-25T09:13:06.781Z,98603.56
2018-12-25T09:15:41.884Z,98597.13
2018-12-25T09:18:10.637Z,98598.77
2018-12-25T09:20:39.583Z,98595.83
2018-12-25T09:23:06.158Z,98591.64
2018-12-25T09:25:35.701Z,98601.75
2018-12-25T09:28:03.117Z,98605.14
2018-12-25T09:30:31.733Z,98611.44
2018-12-25T09:32:59.859Z,98610.30
2018-12-25T09:35:26.990Z,98618.51
2018-12-25T09:37:56.338Z,98611.38
2018-12-25T09:40:25.078Z,98616.85
2018-12-25T09:42:54.800Z,98613.17
2018-12-25T09:45:29.823Z,98607.36
2018-12-25T09:47:56.648Z,98608.14
2018-12-25T09:50:23.206Z,98612.13
2018-12-25T09:52:49.848Z,98608.39
2018-12-25T09:55:21.652Z,98612.04
2018-12-25T09:57:48.351Z,98616.11
2018-12-25T10:00:17.524Z,98627.59
2018-12-25T10:02:44.199Z,98625.22
2018-12-25T10:05:10.719Z,98622.05
2018-12-25T10:07:38.947Z,98622.71
2018-12-25T10:10:08.169Z,98624.02
2018-12-25T10:12:36.995Z,98614.45
2018-12-25T10:15:03.570Z,98617.17
2018-12-25T10:17:30.130Z,98618.49
2018-12-25T10:19:59.563Z,98620.39
2018-12-25T10:22:26.427Z,98621.99
2018-12-25T10:24:52.995Z,98616.60
2018-12-25T10:27:21.769Z,98612.63
2018-12-25T10:29:48.517Z,98613.24
2018-12-25T10:32:15.040Z,98593.94
2018-12-25T10:34:41.892Z,98593.64
2018-12-25T10:37:08.727Z,98598.69
2018-12-25T10:39:35.192Z,98605.34
2018-12-25T10:42:01.733Z,98594.89
2018-12-25T10:44:30.527Z,98596.71
2018-12-25T10:46:57.132Z,98601.87
2018-12-25T10:49:23.747Z,98600.35
2018-12-25T10:51:56.300Z,98596.00
2018-12-25T10:54:22.957Z,98602.59
2018-12-25T10:56:51.505Z,98601.40
2018-12-25T10:59:18.378Z,98602.91
2018-12-25T11:01:45.087Z,98602.25
2018-12-25T11:04:11.623Z,98607.13
2018-12-25T11:06:38.165Z,98595.98
2018-12-25T11:09:08.487Z,98577.86
2018-12-25T11:11:35.030Z,98578.42
2018-12-25T11:14:05.198Z,98585.30
2018-12-25T11:16:34.511Z,98576.56
2018-12-25T11:19:01.353Z,98570.03
2018-12-25T11:21:30.363Z,98558.82
2018-12-25T11:23:56.890Z,98563.47
2018-12-25T11:26:31.881Z,98560.86
2018-12-25T11:28:59.545Z,98565.86
2018-12-25T11:31:28.503Z,98565.09
2018-12-25T11:33:55.190Z,98562.31
2018-12-25T11:36:22.566Z,98575.92
2018-12-25T11:38:49.109Z,98571.42
2018-12-25T11:41:18.265Z,98580.11
2018-12-25T11:43:47.388Z,98574.02
2018-12-25T11:46:18.028Z,98565.23
2018-12-25T11:48:46.632Z,98557.35
2018-12-25T11:51:13.194Z,98558.20
2018-12-25T11:53:42.527Z,98558.17
2018-12-25T11:56:16.229Z,98552.52
2018-12-25T11:58:47.603Z,98535.19
2018-12-25T12:01:13.957Z,98524.20
2018-12-25T12:03:40.512Z,98516.80
2018-12-25T12:06:07.022Z,98528.63
2018-12-25T12:08:35.660Z,98523.33
2018-12-25T12:11:04.314Z,98530.56
2018-12-25T12:13:30.874Z,98533.46
2018-12-25T12:15:59.918Z,98544.36
2018-12-25T12:18:28.866Z,98546.77
2018-12-25T12:20:57.160Z,98549.63
2018-12-25T12:23:23.804Z,98547.48
2018-12-25T12:25:52.087Z,98553.54
2018-12-25T12:28:19.454Z,98557.19
2018-12-25T12:30:48.862Z,98552.55
2018-12-25T12:33:15.650Z,98549.23
2018-12-25T12:35:45.215Z,98547.40
2018-12-25T12:38:14.222Z,98552.84
2018-12-25T12:40:40.759Z,98550.92
2018-12-25T12:43:09.490Z,98546.30
2018-12-25T12:45:37.656Z,98553.47
2018-12-25T12:48:04.004Z,98544.77
2018-12-25T12:50:32.775Z,98541.44
2018-12-25T12:53:01.499Z,98544.85
2018-12-25T12:55:30.525Z,98533.97
2018-12-25T13:00:36.152Z,98523.72
2018-12-25T13:03:20.056Z,98532.83
2018-12-25T13:05:49.847Z,98535.05
2018-12-25T13:08:19.041Z,98536.57
2018-12-25T13:10:45.575Z,98533.64
2018-12-25T13:13:13.848Z,98541.05
2018-12-25T13:15:42.664Z,98541.61
2018-12-25T13:18:09.218Z,98545.73
2018-12-25T13:20:36.536Z,98537.06
2018-12-25T13:23:03.225Z,98539.94
2018-12-25T13:25:29.760Z,98536.22
2018-12-25T13:27:58.499Z,98534.84
2018-12-25T13:30:27.746Z,98540.46
2018-12-25T13:32:54.108Z,98541.25
2018-12-25T13:35:23.451Z,98542.05
2018-12-25T13:37:50.215Z,98545.36
2018-12-25T13:40:19.065Z,98544.39
2018-12-25T13:42:46.061Z,98541.94
2018-12-25T13:45:14.744Z,98543.35
2018-12-25T13:47:47.380Z,98545.55
2018-12-25T13:50:15.997Z,98543.52
2018-12-25T13:52:45.061Z,98539.25
2018-12-25T13:55:13.674Z,98542.50
2018-12-25T13:57:44.523Z,98542.85
2018-12-25T14:00:13.724Z,98545.57
2018-12-25T14:02:40.252Z,98544.98
2018-12-25T14:05:06.786Z,98550.59
2018-12-25T14:07:33.285Z,98549.80
2018-12-25T14:09:59.857Z,98549.40
2018-12-25T14:12:28.882Z,98539.36
2018-12-25T14:14:56.140Z,98542.44
2018-12-25T14:17:32.740Z,98545.20
2018-12-25T14:20:02.210Z,98547.91
2018-12-25T14:22:33.208Z,98552.58
2018-12-25T14:25:01.685Z,98555.98
2018-12-25T14:27:37.580Z,98555.29
2018-12-25T14:30:06.432Z,98558.27
2018-12-25T14:32:35.583Z,98553.61
2018-12-25T14:37:40.215Z,98562.48
2018-12-25T14:40:07.245Z,98571.23
2018-12-25T14:42:36.384Z,98567.64
2018-12-25T14:55:13.172Z,98580.97
2018-12-25T15:00:27.736Z,98575.44
2018-12-25T15:02:54.249Z,98567.50
2018-12-25T15:05:20.790Z,98560.65
2018-12-25T15:07:57.996Z,98564.23
2018-12-25T15:10:24.788Z,98569.51
2018-12-25T15:12:55.094Z,98568.00
2018-12-25T15:15:28.995Z,98570.92
2018-12-25T15:17:55.768Z,98573.67
2018-12-25T15:20:22.693Z,98574.65
2018-12-25T15:22:53.012Z,98578.90
2018-12-25T15:25:20.455Z,98581.86
2018-12-25T15:27:49.816Z,98591.06
2018-12-25T15:30:18.459Z,98600.33
2018-12-25T15:32:46.011Z,98608.88
2018-12-25T15:35:12.596Z,98611.95
2018-12-25T15:37:39.166Z,98613.98
2018-12-25T15:40:08.543Z,98617.95
2018-12-25T15:42:36.708Z,98611.25
2018-12-25T15:45:03.250Z,98619.91
2018-12-25T15:47:32.581Z,98623.91
2018-12-25T15:49:59.213Z,98635.74
2018-12-25T15:52:29.891Z,98641.12
2018-12-25T15:54:59.880Z,98645.27
2018-12-25T15:57:28.492Z,98642.30
2018-12-25T15:59:55.482Z,98645.78
2018-12-25T16:02:25.906Z,98648.08
2018-12-25T16:04:53.142Z,98649.00
2018-12-25T16:07:20.631Z,98651.83
2018-12-25T16:09:47.139Z,98655.03
2018-12-25T16:12:14.446Z,98651.37
2018-12-25T16:14:41.711Z,98661.30
2018-12-25T16:17:08.217Z,98662.13
2018-12-25T16:19:34.735Z,98655.70
2018-12-25T16:22:01.279Z,98648.98
2018-12-25T16:24:29.844Z,98654.28
2018-12-25T16:26:58.729Z,98670.27
2018-12-25T16:48:24.906Z,98698.02
2018-12-25T16:53:41.915Z,98700.59
2018-12-25T16:56:09.821Z,98701.74
2018-12-25T16:58:38.631Z,98700.15
2018-12-25T17:01:06.977Z,98702.20
2018-12-25T17:03:37.936Z,98697.58
2018-12-25T17:06:08.201Z,98702.87
2018-12-25T17:08:36.534Z,98699.28
2018-12-25T17:11:04.864Z,98703.58
2018-12-25T17:13:32.212Z,98703.78
2018-12-25T17:16:00.759Z,98706.47
2018-12-25T17:18:30.116Z,98699.31
2018-12-25T17:20:59.832Z,98694.02
2018-12-25T17:31:18.968Z,98697.08
2018-12-25T17:33:45.578Z,98687.37
2018-12-25T17:36:12.143Z,98685.23
2018-12-25T17:38:38.675Z,98677.95
2018-12-25T17:41:05.212Z,98675.50
2018-12-25T17:43:31.756Z,98679.16
2018-12-25T17:45:58.305Z,98680.36
2018-12-25T17:48:24.837Z,98680.69
2018-12-25T17:50:58.276Z,98678.55
2018-12-25T17:53:29.045Z,98678.74
2018-12-25T18:03:53.595Z,98689.98
2018-12-25T18:08:57.166Z,98683.14
2018-12-25T18:11:25.781Z,98683.49
2018-12-25T18:13:52.280Z,98693.26
2018-12-25T18:16:19.306Z,98689.48
2018-12-25T18:18:46.253Z,98693.28
2018-12-25T18:21:12.757Z,98699.05
2018-12-25T18:23:39.309Z,98695.92
2018-12-25T18:26:06.831Z,98690.24
2018-12-25T18:33:49.600Z,98698.50
2018-12-25T18:36:16.321Z,98697.77
2018-12-25T18:38:44.858Z,98696.70
2018-12-25T18:41:11.578Z,98707.83
2018-12-25T18:43:40.310Z,98703.46
2018-12-25T18:46:06.844Z,98708.19
2018-12-25T18:48:35.586Z,98712.73
2018-12-25T18:51:02.568Z,98710.20
2018-12-25T18:53:31.381Z,98713.78
2018-12-25T18:56:00.300Z,98710.16
2018-12-25T18:58:29.122Z,98710.95
2018-12-25T19:00:55.626Z,98714.48
2018-12-25T19:03:24.875Z,98721.09
2018-12-25T19:05:51.446Z,98719.77
2018-12-25T19:08:20.086Z,98719.59
2018-12-25T19:10:48.692Z,98730.93
2018-12-25T19:13:15.193Z,98735.03
2018-12-25T19:15:44.359Z,98729.18
2018-12-25T19:18:11.123Z,98740.02
2018-12-25T19:20:40.282Z,98737.75
2018-12-25T19:23:06.919Z,98744.75
2018-12-25T19:25:33.475Z,98744.27
2018-12-25T19:28:05.209Z,98747.36
2018-12-25T19:30:32.786Z,98742.52
2018-12-25T19:32:59.336Z,98749.92
2018-12-25T19:35:25.888Z,98751.72
2018-12-25T19:37:52.532Z,98745.20
2018-12-25T19:40:19.777Z,98743.41
2018-12-25T19:42:46.372Z,98747.42
2018-12-25T19:45:15.083Z,98749.94
2018-12-25T19:47:44.096Z,98754.88
2018-12-25T19:50:14.841Z,98752.84
2018-12-25T19:52:43.557Z,98742.59
2018-12-25T19:55:12.417Z,98741.91
2018-12-25T19:57:41.065Z,98740.95
2018-12-25T20:00:07.700Z,98734.94
2018-12-25T20:02:40.436Z,98742.09
2018-12-25T20:05:11.516Z,98739.22
2018-12-25T20:07:38.060Z,98739.22
2018-12-25T20:10:08.782Z,98741.05
2018-12-25T20:12:37.478Z,98733.28
2018-12-25T20:15:04.399Z,98736.03
2018-12-25T20:17:33.471Z,98727.41
2018-12-25T20:20:00.264Z,98724.56
2018-12-25T20:22:29.280Z,98727.69
2018-12-25T20:24:56.111Z,98737.02
2018-12-25T20:27:22.664Z,98736.36
2018-12-25T20:29:49.154Z,98739.80
2018-12-25T20:34:53.720Z,98744.70
2018-12-25T20:37:22.257Z,98741.83
2018-12-25T20:39:51.321Z,98745.73
2018-12-25T20:42:20.104Z,98735.16
2018-12-25T20:44:49.150Z,98733.17
2018-12-25T20:47:15.790Z,98739.11
2018-12-25T20:49:44.842Z,98731.92
2018-12-25T20:52:12.318Z,98736.37
2018-12-25T20:54:38.831Z,98732.59
2018-12-25T20:57:07.633Z,98735.25
2018-12-25T20:59:35.037Z,98728.71
2018-12-25T21:02:05.084Z,98724.29
2018-12-25T21:04:31.632Z,98714.63
2018-12-25T21:06:58.472Z,98717.49
2018-12-25T21:09:27.863Z,98712.69
2018-12-25T21:11:56.615Z,98721.06
2018-12-25T21:14:23.132Z,98719.64
2018-12-25T21:16:52.300Z,98713.68
2018-12-25T21:19:21.085Z,98719.39
2018-12-25T21:21:47.647Z,98724.80
2018-12-25T21:24:21.824Z,98729.27
2018-12-25T21:26:48.490Z,98737.74
2018-12-25T21:29:15.012Z,98742.53
2018-12-25T21:31:41.580Z,98741.52
2018-12-25T21:34:11.073Z,98739.69
2018-12-25T21:36:37.596Z,98746.46
2018-12-25T21:39:04.340Z,98752.72
2018-12-25T21:41:30.891Z,98752.61
2018-12-25T21:44:02.281Z,98752.58
2018-12-25T21:46:28.928Z,98748.88
2018-12-25T21:48:56.322Z,98748.15
2018-12-25T21:56:27.192Z,98752.63
2018-12-25T21:58:56.055Z,98743.26
2018-12-25T22:01:24.855Z,98738.79
2018-12-25T22:03:57.404Z,98752.22
2018-12-25T22:06:26.276Z,98753.09
2018-12-25T22:08:54.833Z,98751.47
2018-12-25T22:11:23.656Z,98743.69
2018-12-25T22:13:50.213Z,98742.53
2018-12-25T22:19:03.399Z,98743.56
2018-12-25T22:21:32.319Z,98728.73
2018-12-25T22:24:00.902Z,98724.98
2018-12-25T22:26:27.450Z,98722.53
2018-12-25T22:28:55.660Z,98727.78
2018-12-25T22:31:24.269Z,98733.00
2018-12-25T22:33:51.897Z,98725.34
2018-12-25T22:36:18.757Z,98721.13
2018-12-25T22:38:47.324Z,98720.31
2018-12-25T22:41:16.287Z,98710.71
2018-12-25T22:43:44.869Z,98705.22
2018-12-25T22:46:15.163Z,98703.91
2018-12-25T22:48:44.573Z,98701.32
2018-12-25T22:51:11.077Z,98701.48
2018-12-25T22:53:39.628Z,98702.02
2018-12-25T22:56:06.210Z,98706.09
2018-12-25T22:58:35.756Z,98701.37
2018-12-25T23:01:02.273Z,98692.72
2018-12-25T23:03:28.807Z,98687.39
2018-12-25T23:05:55.566Z,98688.95
2018-12-25T23:08:22.340Z,98685.55
2018-12-25T23:10:48.875Z,98682.25
2018-12-25T23:13:17.539Z,98686.64
2018-12-25T23:15:46.236Z,98692.30
2018-12-25T23:18:13.064Z,98696.02
2018-12-25T23:20:41.696Z,98685.42
2018-12-25T23:23:12.591Z,98685.26
2018-12-25T23:25:44.625Z,98686.61
2018-12-25T23:28:11.915Z,98676.75
2018-12-25T23:30:40.527Z,98681.67
2018-12-25T23:33:09.349Z,98682.25
2018-12-25T23:35:35.918Z,98682.97
2018-12-25T23:38:02.420Z,98680.58
2018-12-25T23:40:29.001Z,98687.52
2018-12-25T23:47:59.798Z,98700.89
2018-12-25T23:50:26.347Z,98714.73
2018-12-25T23:52:53.060Z,98705.52
2018-12-25T23:55:19.672Z,98707.91
2018-12-25T23:57:50.201Z,98710.08
